createdAt,value
2019-03-28T00:00:39.515Z,31.07
2019-03-28T00:03:11.437Z,29.03
2019-03-28T00:05:43.227Z,35.83
2019-03-28T00:08:15.521Z,32.80
2019-03-28T00:10:49.712Z,33.20
2019-03-28T00:13:20.908Z,35.13
2019-03-28T00:15:53.315Z,38.80
2019-03-28T00:18:26.747Z,30.00
2019-03-28T00:20:58.913Z,33.73
2019-03-28T00:23:49.508Z,32.10
2019-03-28T00:26:29.917Z,32.17
2019-03-28T00:28:55.349Z,34.60
2019-03-28T00:31:27.749Z,29.70
2019-03-28T00:34:00.604Z,36.40
2019-03-28T00:36:32.556Z,32.03
2019-03-28T00:39:05.194Z,35.20
2019-03-28T00:41:36.895Z,31.77
2019-03-28T00:44:12.227Z,33.30
2019-03-28T00:46:45.257Z,30.70
2019-03-28T00:49:18.082Z,35.90
2019-03-28T00:51:50.634Z,40.43
2019-03-28T00:54:23.593Z,31.27
2019-03-28T00:56:55.787Z,32.37
2019-03-28T00:59:27.548Z,37.33
2019-03-28T01:02:00.426Z,38.50
2019-03-28T01:04:32.179Z,32.23
2019-03-28T01:07:04.504Z,34.13
2019-03-28T01:09:36.400Z,34.30
2019-03-28T01:12:08.477Z,32.73
2019-03-28T01:14:40.830Z,34.73
2019-03-28T01:17:12.189Z,45.47
2019-03-28T01:19:44.793Z,33.53
2019-03-28T01:22:18.264Z,34.33
2019-03-28T01:24:50.637Z,33.43
2019-03-28T01:27:22.850Z,39.50
2019-03-28T01:29:54.747Z,36.70
2019-03-28T01:32:28.232Z,38.73
2019-03-28T01:35:00.361Z,39.70
2019-03-28T01:37:33.351Z,35.30
2019-03-28T01:40:08.029Z,32.87
2019-03-28T01:42:39.868Z,33.97
2019-03-28T01:45:13.144Z,32.07
2019-03-28T01:47:45.447Z,36.47
2019-03-28T01:50:17.434Z,30.53
2019-03-28T01:52:49.767Z,29.27
2019-03-28T01:55:21.210Z,34.13
2019-03-28T01:57:53.585Z,31.90
2019-03-28T02:00:25.189Z,32.07
2019-03-28T02:02:58.640Z,28.20
2019-03-28T02:05:30.830Z,37.73
2019-03-28T02:08:03.341Z,31.50
2019-03-28T02:10:35.794Z,29.83
2019-03-28T02:13:07.068Z,30.63
2019-03-28T02:15:38.360Z,27.57
2019-03-28T02:18:09.770Z,32.87
2019-03-28T02:20:41.145Z,34.27
2019-03-28T02:23:13.963Z,33.13
2019-03-28T02:25:45.636Z,32.63
2019-03-28T02:28:17.671Z,29.73
2019-03-28T02:30:50.757Z,30.80
2019-03-28T02:33:23.221Z,34.60
2019-03-28T02:35:55.147Z,33.60
2019-03-28T02:38:28.245Z,32.07
2019-03-28T02:41:00.841Z,32.60
2019-03-28T02:43:32.750Z,32.53
2019-03-28T02:46:04.574Z,35.27
2019-03-28T02:48:36.658Z,31.70
2019-03-28T02:51:08.664Z,37.23
2019-03-28T02:53:40.790Z,32.23
2019-03-28T02:56:15.822Z,35.00
2019-03-28T02:58:48.501Z,32.50
2019-03-28T03:01:20.496Z,27.97
2019-03-28T03:03:52.781Z,31.50
2019-03-28T03:06:24.348Z,32.37
2019-03-28T03:08:56.437Z,33.10
2019-03-28T03:11:28.984Z,35.33
2019-03-28T03:14:01.108Z,35.13
2019-03-28T03:16:33.077Z,35.50
2019-03-28T03:19:04.949Z,29.00
2019-03-28T03:21:37.793Z,32.57
2019-03-28T03:24:10.348Z,28.53
2019-03-28T03:26:42.370Z,34.80
2019-03-28T03:29:14.349Z,33.43
2019-03-28T03:31:46.293Z,35.40
2019-03-28T03:34:18.433Z,33.27
2019-03-28T03:36:51.007Z,31.77
2019-03-28T03:39:23.705Z,37.70
2019-03-28T03:41:56.158Z,37.13
2019-03-28T03:44:27.708Z,35.67
2019-03-28T03:46:59.402Z,39.03
2019-03-28T03:49:31.043Z,35.93
2019-03-28T03:52:03.579Z,32.57
2019-03-28T03:54:35.363Z,39.37
2019-03-28T03:57:07.057Z,41.03
2019-03-28T03:59:38.869Z,34.27
2019-03-28T04:02:11.240Z,36.80
2019-03-28T04:04:44.045Z,36.67
2019-03-28T04:07:16.819Z,32.83
2019-03-28T04:09:51.629Z,38.30
2019-03-28T04:12:24.813Z,39.67
2019-03-28T04:14:56.558Z,35.17
2019-03-28T04:17:28.386Z,41.40
2019-03-28T04:20:00.558Z,36.60
2019-03-28T04:22:32.512Z,39.50
2019-03-28T04:25:05.023Z,40.53
2019-03-28T04:27:37.329Z,40.20
2019-03-28T04:30:09.916Z,36.73
2019-03-28T04:32:42.108Z,41.73
2019-03-28T04:35:14.963Z,39.10
2019-03-28T04:37:47.789Z,35.47
2019-03-28T04:40:21.707Z,34.23
2019-03-28T04:42:53.723Z,34.73
2019-03-28T04:45:25.336Z,37.97
2019-03-28T04:47:57.440Z,35.87
2019-03-28T04:50:28.552Z,36.77
2019-03-28T04:52:59.734Z,39.57
2019-03-28T04:55:31.666Z,45.00
2019-03-28T04:58:03.494Z,37.23
2019-03-28T05:00:34.676Z,40.27
2019-03-28T05:03:05.769Z,40.90
2019-03-28T05:05:36.720Z,37.50
2019-03-28T05:08:08.434Z,45.67
2019-03-28T05:10:39.679Z,39.63
2019-03-28T05:13:10.868Z,43.83
2019-03-28T05:15:42.107Z,43.77
2019-03-28T05:18:13.305Z,42.50
2019-03-28T05:20:44.404Z,38.33
2019-03-28T05:23:15.770Z,39.93
2019-03-28T05:25:46.922Z,39.87
2019-03-28T05:28:18.431Z,42.77
2019-03-28T05:30:51.309Z,44.60
2019-03-28T05:33:22.579Z,42.90
2019-03-28T05:35:55.399Z,42.90
2019-03-28T05:38:28.285Z,44.57
2019-03-28T05:40:59.957Z,41.90
2019-03-28T05:43:32.183Z,40.43
2019-03-28T05:46:03.967Z,43.67
2019-03-28T05:48:35.511Z,46.20
2019-03-28T05:51:07.318Z,43.73
2019-03-28T05:53:39.281Z,41.17
2019-03-28T05:56:11.283Z,38.90
2019-03-28T05:58:43.608Z,41.47
2019-03-28T06:01:16.365Z,35.90
2019-03-28T06:03:48.206Z,40.67
2019-03-28T06:06:20.241Z,40.87
2019-03-28T06:08:52.066Z,38.73
2019-03-28T06:11:23.709Z,36.47
2019-03-28T06:13:55.531Z,36.80
2019-03-28T06:16:28.430Z,37.83
2019-03-28T06:19:01.246Z,38.83
2019-03-28T06:21:33.842Z,39.20
2019-03-28T06:24:06.892Z,37.07
2019-03-28T06:26:39.381Z,38.87
2019-03-28T06:29:23.120Z,35.70
2019-03-28T06:31:54.708Z,37.70
2019-03-28T06:34:18.379Z,36.00
2019-03-28T06:36:50.171Z,33.87
2019-03-28T06:39:21.663Z,33.73
2019-03-28T06:41:54.262Z,30.87
2019-03-28T06:44:25.748Z,36.77
2019-03-28T06:46:58.160Z,37.23
2019-03-28T06:49:31.274Z,32.77
2019-03-28T06:52:03.239Z,30.47
2019-03-28T06:54:35.596Z,28.87
2019-03-28T06:57:07.969Z,34.17
2019-03-28T06:59:39.915Z,33.50
2019-03-28T07:02:11.565Z,41.80
2019-03-28T07:04:44.151Z,34.23
2019-03-28T07:07:18.418Z,37.20
2019-03-28T07:09:49.391Z,30.40
2019-03-28T07:12:21.391Z,32.00
2019-03-28T07:14:54.302Z,35.33
2019-03-28T07:17:27.356Z,30.23
2019-03-28T07:19:59.505Z,26.93
2019-03-28T07:22:31.284Z,24.30
2019-03-28T07:25:03.231Z,25.23
2019-03-28T07:27:35.197Z,24.17
2019-03-28T07:30:10.573Z,23.53
2019-03-28T07:32:45.345Z,25.17
2019-03-28T07:35:17.046Z,21.10
2019-03-28T07:37:49.510Z,19.77
2019-03-28T07:40:22.184Z,20.30
2019-03-28T07:42:54.596Z,18.93
2019-03-28T07:45:26.333Z,20.07
2019-03-28T07:47:58.402Z,20.00
2019-03-28T07:50:33.276Z,22.70
2019-03-28T07:53:05.087Z,19.53
2019-03-28T07:55:38.274Z,18.67
2019-03-28T07:58:10.789Z,15.37
2019-03-28T08:00:43.392Z,17.17
2019-03-28T08:03:16.466Z,16.43
2019-03-28T08:05:48.894Z,15.67
2019-03-28T08:08:21.026Z,17.70
2019-03-28T08:10:52.928Z,16.80
2019-03-28T08:13:24.781Z,15.73
2019-03-28T08:15:57.152Z,14.53
2019-03-28T08:18:28.785Z,16.30
2019-03-28T08:21:00.300Z,15.70
2019-03-28T08:23:35.301Z,14.90
2019-03-28T08:26:06.505Z,14.03
2019-03-28T08:28:38.362Z,13.70
2019-03-28T08:31:13.374Z,13.40
2019-03-28T08:33:46.030Z,13.57
2019-03-28T08:36:17.958Z,15.40
2019-03-28T08:38:52.985Z,12.97
2019-03-28T08:41:25.081Z,11.00
2019-03-28T08:43:57.827Z,10.83
2019-03-28T08:46:30.714Z,10.03
2019-03-28T08:49:03.266Z,10.20
2019-03-28T08:51:36.286Z,10.07
2019-03-28T08:54:42.745Z,11.57
2019-03-28T08:57:18.801Z,11.40
2019-03-28T08:59:50.836Z,10.60
2019-03-28T09:02:35.233Z,10.27
2019-03-28T09:05:19.224Z,9.63
2019-03-28T09:07:50.740Z,12.07
2019-03-28T09:10:22.246Z,13.60
2019-03-28T09:12:55.160Z,13.17
2019-03-28T09:15:28.025Z,13.70
2019-03-28T09:18:00.382Z,15.73
2019-03-28T09:20:34.163Z,15.27
2019-03-28T09:23:43.646Z,15.07
2019-03-28T09:26:16.393Z,17.80
2019-03-28T09:28:51.197Z,17.07
2019-03-28T09:31:28.876Z,17.33
2019-03-28T09:34:02.265Z,17.97
2019-03-28T09:36:38.048Z,18.17
2019-03-28T09:39:11.471Z,20.37
2019-03-28T09:41:46.872Z,18.00
2019-03-28T09:44:20.608Z,18.17
2019-03-28T09:46:53.443Z,18.53
2019-03-28T09:49:25.313Z,17.43
2019-03-28T09:51:57.852Z,17.93
2019-03-28T09:54:30.290Z,18.40
2019-03-28T09:57:02.958Z,18.60
2019-03-28T09:59:35.834Z,20.23
2019-03-28T10:02:07.145Z,20.40
2019-03-28T10:04:39.035Z,19.27
2019-03-28T10:07:10.548Z,19.90
2019-03-28T10:09:48.287Z,22.90
2019-03-28T10:12:26.231Z,20.33
2019-03-28T10:14:59.182Z,19.87
2019-03-28T10:17:32.746Z,18.50
2019-03-28T10:20:05.780Z,18.23
2019-03-28T10:22:45.332Z,18.37
2019-03-28T10:25:21.231Z,19.83
2019-03-28T10:27:53.866Z,20.70
2019-03-28T10:30:39.719Z,19.27
2019-03-28T10:33:11.485Z,21.10
2019-03-28T10:35:43.759Z,21.10
2019-03-28T10:38:15.765Z,20.63
2019-03-28T10:40:49.400Z,18.77
2019-03-28T10:43:20.866Z,18.90
2019-03-28T10:46:09.341Z,20.77
2019-03-28T10:48:37.688Z,20.47
2019-03-28T10:52:43.739Z,19.53
2019-03-28T10:55:16.658Z,17.97
2019-03-28T10:57:50.110Z,18.83
2019-03-28T11:00:24.428Z,21.57
2019-03-28T11:02:55.834Z,17.47
2019-03-28T11:05:27.786Z,18.57
2019-03-28T11:08:00.105Z,18.47
2019-03-28T11:10:32.425Z,18.50
2019-03-28T11:13:03.591Z,19.60
2019-03-28T11:15:35.510Z,19.20
2019-03-28T11:18:07.196Z,18.47
2019-03-28T11:20:40.105Z,19.47
2019-03-28T11:23:14.999Z,19.57
2019-03-28T11:25:47.381Z,17.97
2019-03-28T11:28:19.146Z,19.13
2019-03-28T11:30:51.572Z,20.13
2019-03-28T11:33:23.909Z,22.20
2019-03-28T11:35:59.374Z,21.37
2019-03-28T11:38:31.552Z,19.37
2019-03-28T11:41:03.825Z,18.10
2019-03-28T11:43:37.110Z,17.47
2019-03-28T11:46:09.079Z,20.43
2019-03-28T11:48:41.356Z,24.60
2019-03-28T11:51:14.523Z,20.17
2019-03-28T11:53:47.852Z,17.50
2019-03-28T11:56:19.684Z,17.83
2019-03-28T11:58:51.680Z,18.27
2019-03-28T12:01:24.525Z,20.03
2019-03-28T12:03:55.922Z,17.37
2019-03-28T12:06:28.523Z,19.20
2019-03-28T12:09:00.187Z,18.50
2019-03-28T12:11:32.126Z,20.23
2019-03-28T12:14:04.360Z,18.53
2019-03-28T12:16:37.106Z,18.00
2019-03-28T12:19:08.986Z,19.50
2019-03-28T12:21:40.877Z,19.23
2019-03-28T12:24:13.005Z,25.43
2019-03-28T12:26:44.570Z,19.80
2019-03-28T12:29:16.858Z,18.33
2019-03-28T12:31:48.562Z,17.50
2019-03-28T12:34:19.913Z,17.97
2019-03-28T12:36:52.814Z,30.77
2019-03-28T12:39:24.025Z,19.03
2019-03-28T12:41:55.956Z,18.37
2019-03-28T12:44:27.727Z,18.33
2019-03-28T12:46:59.698Z,18.17
2019-03-28T12:49:31.924Z,17.83
2019-03-28T12:52:04.118Z,18.40
2019-03-28T12:54:37.189Z,18.00
2019-03-28T12:57:08.914Z,19.93
2019-03-28T12:59:40.624Z,19.27
2019-03-28T13:02:26.750Z,17.73
2019-03-28T13:04:46.284Z,19.60
2019-03-28T13:07:18.011Z,21.03
2019-03-28T13:09:51.665Z,19.10
2019-03-28T13:12:27.291Z,22.00
2019-03-28T13:14:59.597Z,22.50
2019-03-28T13:17:32.537Z,21.77
2019-03-28T13:20:04.396Z,21.13
2019-03-28T13:22:36.516Z,21.87
2019-03-28T13:25:09.490Z,20.80
2019-03-28T13:27:41.532Z,20.87
2019-03-28T13:30:15.399Z,20.17
2019-03-28T13:32:47.834Z,19.67
2019-03-28T13:35:19.105Z,21.77
2019-03-28T13:37:50.964Z,23.60
2019-03-28T13:40:22.794Z,22.37
2019-03-28T13:42:54.712Z,21.40
2019-03-28T13:45:26.257Z,20.73
2019-03-28T13:47:58.068Z,21.83
2019-03-28T13:50:30.773Z,21.10
2019-03-28T13:53:02.707Z,21.47
2019-03-28T13:55:35.228Z,22.77
2019-03-28T13:58:06.816Z,23.33
2019-03-28T14:00:38.350Z,21.73
2019-03-28T14:03:09.897Z,20.60
2019-03-28T14:05:43.134Z,21.83
2019-03-28T14:08:14.642Z,20.70
2019-03-28T14:10:47.337Z,22.20
2019-03-28T14:13:19.566Z,24.13
2019-03-28T14:15:51.980Z,23.03
2019-03-28T14:18:23.613Z,21.43
2019-03-28T14:20:55.984Z,23.90
2019-03-28T14:23:27.888Z,21.97
2019-03-28T14:26:00.521Z,22.23
2019-03-28T14:28:33.051Z,21.30
2019-03-28T14:31:05.343Z,21.87
2019-03-28T14:33:38.609Z,21.93
2019-03-28T14:36:10.862Z,21.00
2019-03-28T14:38:43.606Z,21.10
2019-03-28T14:41:16.452Z,21.17
2019-03-28T14:43:48.673Z,20.20
2019-03-28T14:46:23.155Z,21.80
2019-03-28T14:48:56.417Z,22.73
2019-03-28T14:51:29.593Z,21.50
2019-03-28T14:54:01.849Z,21.33
2019-03-28T14:56:35.099Z,22.00
2019-03-28T14:59:07.685Z,21.90
2019-03-28T15:01:39.392Z,21.60
2019-03-28T15:04:11.788Z,22.57
2019-03-28T15:06:43.854Z,22.13
2019-03-28T15:09:16.184Z,21.50
2019-03-28T15:11:48.786Z,20.93
2019-03-28T15:14:22.595Z,22.37
2019-03-28T15:16:56.144Z,21.20
2019-03-28T15:19:28.016Z,22.13
2019-03-28T15:22:00.319Z,21.80
2019-03-28T15:24:32.804Z,19.73
2019-03-28T15:27:05.713Z,20.40
2019-03-28T15:29:38.765Z,20.17
2019-03-28T15:32:11.710Z,22.80
2019-03-28T15:34:44.526Z,22.20
2019-03-28T15:37:17.488Z,21.53
2019-03-28T15:39:51.145Z,23.03
2019-03-28T15:42:27.728Z,21.43
2019-03-28T15:44:58.651Z,22.70
2019-03-28T15:47:31.726Z,20.83
2019-03-28T15:50:04.209Z,21.90
2019-03-28T15:52:36.540Z,22.77
2019-03-28T15:55:09.588Z,30.10
2019-03-28T15:57:42.523Z,23.10
2019-03-28T16:00:15.562Z,23.27
2019-03-28T16:02:49.127Z,24.07
2019-03-28T16:05:22.018Z,25.23
2019-03-28T16:07:55.242Z,23.83
2019-03-28T16:10:29.561Z,23.53
2019-03-28T16:13:02.604Z,23.33
2019-03-28T16:15:35.245Z,24.30
2019-03-28T16:18:07.920Z,26.10
2019-03-28T16:20:40.800Z,23.90
2019-03-28T16:23:13.325Z,25.37
2019-03-28T16:25:45.847Z,23.43
2019-03-28T16:28:18.398Z,24.43
2019-03-28T16:30:51.082Z,25.87
2019-03-28T16:33:24.157Z,26.20
2019-03-28T16:35:56.750Z,24.30
2019-03-28T16:38:32.620Z,24.00
2019-03-28T16:41:03.954Z,22.77
2019-03-28T16:43:37.381Z,24.47
2019-03-28T16:46:10.674Z,24.03
2019-03-28T16:48:44.498Z,24.30
2019-03-28T16:51:17.684Z,22.63
2019-03-28T16:53:51.068Z,22.83
2019-03-28T16:56:24.452Z,24.83
2019-03-28T16:58:58.981Z,24.57
2019-03-28T17:01:31.326Z,24.70
2019-03-28T17:04:03.943Z,25.40
2019-03-28T17:06:37.084Z,23.43
2019-03-28T17:09:11.233Z,23.60
2019-03-28T17:11:44.990Z,25.10
2019-03-28T17:14:17.994Z,23.83
2019-03-28T17:16:52.450Z,23.70
2019-03-28T17:19:25.125Z,23.87
2019-03-28T17:21:59.198Z,23.93
2019-03-28T17:24:33.795Z,23.80
2019-03-28T17:27:06.227Z,24.07
2019-03-28T17:29:40.351Z,23.03
2019-03-28T17:32:13.145Z,23.43
2019-03-28T17:34:46.184Z,23.33
2019-03-28T17:37:19.377Z,25.43
2019-03-28T17:39:54.642Z,23.00
2019-03-28T17:42:28.349Z,22.83
2019-03-28T17:45:03.193Z,23.13
2019-03-28T17:47:35.566Z,22.43
2019-03-28T17:50:09.427Z,22.47
2019-03-28T17:52:43.399Z,23.00
2019-03-28T17:55:19.494Z,23.07
2019-03-28T17:57:52.462Z,30.30
2019-03-28T18:00:27.956Z,30.43
2019-03-28T18:03:09.174Z,26.70
2019-03-28T18:05:35.729Z,25.40
2019-03-28T18:08:10.260Z,27.57
2019-03-28T18:10:43.763Z,26.27
2019-03-28T18:13:17.787Z,28.60
2019-03-28T18:15:53.866Z,26.73
2019-03-28T18:18:27.710Z,27.53
2019-03-28T18:21:00.836Z,28.80
2019-03-28T18:23:33.884Z,30.13
2019-03-28T18:26:10.032Z,27.60
2019-03-28T18:28:44.668Z,28.57
2019-03-28T18:31:18.177Z,28.70
2019-03-28T18:33:51.418Z,29.80
2019-03-28T18:36:24.764Z,27.37
2019-03-28T18:38:58.446Z,26.90
2019-03-28T18:41:32.834Z,28.00
2019-03-28T18:44:05.949Z,29.30
2019-03-28T18:46:40.161Z,30.17
2019-03-28T18:49:13.836Z,30.43
2019-03-28T18:51:47.072Z,28.73
2019-03-28T18:54:20.946Z,29.27
2019-03-28T18:56:53.905Z,31.67
2019-03-28T18:59:26.904Z,30.23
2019-03-28T19:02:02.625Z,29.20
2019-03-28T19:04:35.630Z,30.00
2019-03-28T19:07:12.719Z,49.80
2019-03-28T19:09:46.665Z,53.93
2019-03-28T19:12:20.150Z,63.30
2019-03-28T19:14:53.619Z,50.70
2019-03-28T19:17:26.832Z,45.50
2019-03-28T19:19:59.866Z,51.53
2019-03-28T19:22:34.787Z,62.07
2019-03-28T19:25:09.395Z,60.80
2019-03-28T19:27:46.628Z,64.77
2019-03-28T19:30:23.147Z,71.97
2019-03-28T19:32:55.756Z,61.80
2019-03-28T19:35:33.099Z,64.80
2019-03-28T19:38:09.084Z,64.87
2019-03-28T19:40:42.139Z,71.53
2019-03-28T19:43:20.851Z,73.90
2019-03-28T19:45:50.835Z,62.53
2019-03-28T19:48:25.168Z,53.80
2019-03-28T19:50:58.828Z,66.20
2019-03-28T19:53:35.372Z,61.60
2019-03-28T19:56:09.431Z,60.30
2019-03-28T19:58:42.836Z,53.83
2019-03-28T20:01:19.034Z,64.93
2019-03-28T20:03:52.545Z,75.43
2019-03-28T20:06:25.790Z,67.37
2019-03-28T20:08:59.708Z,67.43
2019-03-28T20:11:34.396Z,66.00
2019-03-28T20:14:08.294Z,62.73
2019-03-28T20:16:41.869Z,56.37
2019-03-28T20:19:17.751Z,61.47
2019-03-28T20:21:49.560Z,58.67
2019-03-28T20:24:23.524Z,58.43
2019-03-28T20:26:56.468Z,52.70
2019-03-28T20:29:33.263Z,47.80
2019-03-28T20:32:08.083Z,54.70
2019-03-28T20:34:43.831Z,57.53
2019-03-28T20:37:17.565Z,53.80
2019-03-28T20:39:52.062Z,48.67
2019-03-28T20:42:28.071Z,63.67
2019-03-28T20:45:00.837Z,53.70
2019-03-28T20:47:35.950Z,54.50
2019-03-28T20:50:10.690Z,59.23
2019-03-28T20:52:46.062Z,50.30
2019-03-28T20:55:21.476Z,46.97
2019-03-28T20:57:54.391Z,54.10
2019-03-28T21:00:50.031Z,51.83
2019-03-28T21:03:24.380Z,53.67
2019-03-28T21:05:57.391Z,50.07
2019-03-28T21:08:30.661Z,51.63
2019-03-28T21:11:03.392Z,46.00
2019-03-28T21:13:36.814Z,54.90
2019-03-28T21:16:11.067Z,40.43
2019-03-28T21:18:44.669Z,41.07
2019-03-28T21:21:17.279Z,45.57
2019-03-28T21:23:50.039Z,41.27
2019-03-28T21:26:24.830Z,39.10
2019-03-28T21:28:58.373Z,47.13
2019-03-28T21:31:31.252Z,45.00
2019-03-28T21:34:05.123Z,49.83
2019-03-28T21:36:38.381Z,49.00
2019-03-28T21:39:11.351Z,46.87
2019-03-28T21:41:43.803Z,49.57
2019-03-28T21:44:16.700Z,47.43
2019-03-28T21:46:50.842Z,47.93
2019-03-28T21:49:23.700Z,49.13
2019-03-28T21:51:56.847Z,50.30
2019-03-28T21:54:32.013Z,46.83
2019-03-28T21:57:04.258Z,54.80
2019-03-28T21:59:36.391Z,53.83
2019-03-28T22:02:08.445Z,61.37
2019-03-28T22:04:40.722Z,59.93
2019-03-28T22:07:13.118Z,110.37
2019-03-28T22:09:44.591Z,110.07
2019-03-28T22:12:18.557Z,86.40
2019-03-28T22:14:52.940Z,112.07
2019-03-28T22:17:27.096Z,124.93
2019-03-28T22:19:59.573Z,128.33
2019-03-28T22:22:33.457Z,132.93
2019-03-28T22:25:05.611Z,115.50
2019-03-28T22:27:38.068Z,134.43
2019-03-28T22:30:10.759Z,114.67
2019-03-28T22:32:43.473Z,121.17
2019-03-28T22:35:15.664Z,125.30
2019-03-28T22:37:47.739Z,107.97
2019-03-28T22:40:23.027Z,121.07
2019-03-28T22:42:55.613Z,129.57
2019-03-28T22:45:28.162Z,139.23
2019-03-28T22:48:10.641Z,131.40
2019-03-28T22:50:37.101Z,137.07
2019-03-28T22:53:09.068Z,122.13
2019-03-28T22:55:43.264Z,107.80
2019-03-28T22:58:16.348Z,128.57
2019-03-28T23:00:51.622Z,133.30
2019-03-28T23:03:27.439Z,124.43
2019-03-28T23:06:00.763Z,107.87
2019-03-28T23:08:33.064Z,126.73
2019-03-28T23:11:05.441Z,128.37
2019-03-28T23:13:38.370Z,130.37
2019-03-28T23:16:10.752Z,105.73
2019-03-28T23:18:43.467Z,139.20
2019-03-28T23:21:16.199Z,138.87
2019-03-28T23:23:51.169Z,133.07
2019-03-28T23:26:28.638Z,126.63
2019-03-28T23:29:01.498Z,128.93
2019-03-28T23:31:36.437Z,133.90
2019-03-28T23:34:07.839Z,131.30
2019-03-28T23:36:40.904Z,117.67
2019-03-28T23:39:13.233Z,124.97
2019-03-28T23:41:44.587Z,129.40
2019-03-28T23:44:16.238Z,117.40
2019-03-28T23:46:48.278Z,126.23
2019-03-28T23:49:21.694Z,126.07
2019-03-28T23:51:53.873Z,137.70
2019-03-28T23:54:27.188Z,135.97
2019-03-28T23:56:59.255Z,128.40
2019-03-28T23:59:32.339Z,132.17
